Charles M. Schulz Sonoma County Airport
KSTS : now visible

Airfield :











YOU CAN JOIN US ON...

 
LOGIN :

Register | Disclaimer

   EN    FR    IT 

 









Legend :    VFR   Marginal VFR   IFR   Intensive IFR   Very Intensive IFR
Visi :
Ceiling :
>= 8 km
>= 3000ft
5 to 8 km
1000 to 3000 ft
1500m to 5 km
500 to 1000 ft
800 to 1500m
200 to 500 ft
< 800m
< 200 ft
Symbols :   Thunderstorms  Fog  Heavy snow  Heavy precipitations  Wind > 20 kt






- Airport Elevation : 128 ft


KSTS - Charles M. Schulz Sonoma County

CURRENT METAR :
  • 180553Z AUTO 00000KT 10SM CLR 08/04 A3004 RMK AO2 SLP166 T00830039 10228 20083 53004

EXPIRED METARs :
  • 180453Z AUTO 27003KT 10SM CLR 10/04 A3003 RMK AO2 SLP163 T01000044
  • 180353Z AUTO 00000KT 10SM CLR 12/03 A3003 RMK AO2 SLP161 T01170028

TAF KSTS
Valid from the 18 at 06:00 until the 19 at 06:00 UTC


180523Z 1806/1906 VRB03KT P6SM SCT200
FM182100 20005KT P6SM SKC
FM190400 VRB03KT P6SM SKC



MET'MAP, your aeronautical weather chart ! - Copyright ORBIFLY December 2007 - Disclaimer

ORBIFLY MET'MAP TEAM :

Programming & Development : Alexandra Zaïnal
Concept & original design : Baudouin d'Aumeries
Assistance for programming : Marc-Olivier Méhu
Technical & hardware support : Manuel Goepfert

Contact : metmap@orbifly.com




SOURCES & CREDITS :

   NOAA       Earth
Advisory